Time;durP1;ratioP1;P1;durP2;ratioP2;P2;SDS_P1;SDS_P2;PMS_P1;PMS_P2;Temp;Humidity;BMP_temperature;BMP_pressure;BME280_temperature;BME280_humidity;BME280_pressure;Samples;Min_cycle;Max_cycle;Signal;HPM_P1;HPM_P2
2023/01/11 00:01:21;;;;;;;5.28;4.28;;;8.80;99.90;;;;;;5081450;28;20124;-70
2023/01/11 00:03:47;;;;;;;6.93;4.78;;;8.80;99.90;;;;;;5070545;28;20044;-70
2023/01/11 00:06:13;;;;;;;5.63;4.18;;;8.80;99.90;;;;;;5066138;28;20046;-69
2023/01/11 00:08:38;;;;;;;5.10;4.60;;;8.80;99.90;;;;;;5069709;28;20079;-69
2023/01/11 00:11:14;;;;;;;6.63;4.88;;;8.90;99.90;;;;;;5063399;28;20044;-69
2023/01/11 00:13:40;;;;;;;6.32;4.60;;;8.90;99.90;;;;;;5070153;28;20566;-69
2023/01/11 00:16:07;;;;;;;5.25;4.63;;;8.90;99.90;;;;;;5081859;28;20066;-70
2023/01/11 00:18:32;;;;;;;5.13;4.35;;;8.90;99.90;;;;;;5085745;28;20036;-69
2023/01/11 00:21:04;;;;;;;6.85;4.88;;;8.90;99.90;;;;;;5080035;28;20102;-69
2023/01/11 00:23:33;;;;;;;6.40;5.80;;;8.90;99.90;;;;;;5064657;28;20040;-69
2023/01/11 00:26:05;;;;;;;5.55;4.70;;;8.90;99.90;;;;;;5066285;28;20048;-69
2023/01/11 00:28:31;;;;;;;6.15;4.70;;;8.90;99.90;;;;;;5070459;28;20049;-70
2023/01/11 00:30:56;;;;;;;4.95;4.32;;;8.90;99.90;;;;;;5053538;28;20055;-70
2023/01/11 00:33:22;;;;;;;4.82;4.18;;;8.90;99.90;;;;;;5085241;28;20028;-72
2023/01/11 00:35:51;;;;;;;4.75;4.22;;;9.00;99.90;;;;;;5083443;28;20047;-70
2023/01/11 00:49:18;;;;;;;6.22;4.28;;;9.10;99.90;;;;;;5085887;28;20495;-69
2023/01/11 00:51:44;;;;;;;6.10;4.85;;;9.10;99.90;;;;;;5069317;28;20051;-69
2023/01/11 00:54:10;;;;;;;4.90;4.30;;;9.10;99.90;;;;;;5089879;28;20032;-68
2023/01/11 00:56:36;;;;;;;6.47;4.40;;;9.10;99.90;;;;;;5086452;28;20107;-69
2023/01/11 00:59:03;;;;;;;5.30;4.55;;;9.20;99.90;;;;;;5067307;28;20473;-69
2023/01/11 01:01:29;;;;;;;5.28;4.78;;;9.20;99.90;;;;;;5086268;28;20047;-69
2023/01/11 01:03:55;;;;;;;5.80;5.25;;;9.20;99.90;;;;;;5086581;28;20047;-69
2023/01/11 01:06:21;;;;;;;5.72;5.05;;;9.20;99.90;;;;;;5070687;28;20036;-69
2023/01/11 01:08:47;;;;;;;5.60;4.80;;;9.30;99.90;;;;;;5065003;28;20044;-70
2023/01/11 01:11:13;;;;;;;6.03;5.05;;;9.30;99.90;;;;;;5069584;28;20068;-69
2023/01/11 01:16:23;;;;;;;6.10;4.72;;;9.30;99.90;;;;;;5085256;28;20135;-69
2023/01/11 01:18:48;;;;;;;6.63;5.35;;;9.30;99.90;;;;;;5084669;28;20028;-69
2023/01/11 01:21:14;;;;;;;6.38;5.25;;;9.40;99.90;;;;;;5069880;28;20036;-69
2023/01/11 01:23:40;;;;;;;5.43;4.63;;;9.40;99.90;;;;;;5081593;28;20051;-69
2023/01/11 01:26:06;;;;;;;6.88;5.53;;;9.40;99.90;;;;;;5061448;28;20179;-69
2023/01/11 01:28:32;;;;;;;5.70;5.00;;;9.40;99.90;;;;;;5085412;28;20036;-69
2023/01/11 01:30:58;;;;;;;6.47;5.35;;;9.40;99.90;;;;;;5083684;28;20099;-69
2023/01/11 01:33:23;;;;;;;6.10;5.50;;;9.40;99.90;;;;;;5072119;28;20032;-69
2023/01/11 01:35:49;;;;;;;5.35;4.85;;;9.50;99.90;;;;;;5086135;28;20063;-69
2023/01/11 01:38:15;;;;;;;6.43;5.60;;;9.50;99.90;;;;;;5085170;28;20044;-69
2023/01/11 01:40:42;;;;;;;6.03;5.43;;;9.50;99.90;;;;;;5069296;28;20526;-68
2023/01/11 01:43:15;;;;;;;7.03;4.88;;;9.50;99.90;;;;;;5084468;28;20482;-69
2023/01/11 01:45:40;;;;;;;6.65;5.75;;;9.50;99.90;;;;;;5062028;28;20080;-68
2023/01/11 01:48:13;;;;;;;7.43;5.43;;;9.60;99.90;;;;;;5082861;28;20060;-69
2023/01/11 01:51:01;;;;;;;5.47;4.60;;;9.60;99.90;;;;;;5081042;28;20806;-69
2023/01/11 01:53:36;;;;;;;10.00;5.28;;;9.60;99.90;;;;;;5066025;28;20449;-69
2023/01/11 01:56:06;;;;;;;5.35;4.72;;;9.60;99.90;;;;;;5082854;28;20109;-69
2023/01/11 01:58:42;;;;;;;8.35;5.07;;;9.60;99.90;;;;;;5062322;28;20076;-69
2023/01/11 02:03:53;;;;;;;5.93;4.57;;;9.60;99.90;;;;;;5085933;28;20430;-69
2023/01/11 02:06:21;;;;;;;5.93;4.80;;;9.70;99.90;;;;;;5080570;28;20063;-68
2023/01/11 02:08:54;;;;;;;5.60;4.50;;;9.80;99.90;;;;;;5063891;28;20748;-69
2023/01/11 02:11:30;;;;;;;7.53;3.90;;;9.70;99.90;;;;;;5066028;28;20400;-68
2023/01/11 02:14:04;;;;;;;8.05;5.15;;;9.70;99.90;;;;;;5084810;28;20040;-68
2023/01/11 02:16:30;;;;;;;;;;;9.80;99.90;;;;;;5064210;28;20229;-68
2023/01/11 02:18:58;;;;;;;5.05;3.70;;;9.80;99.90;;;;;;5082032;28;20023;-68
2023/01/11 02:22:01;;;;;;;5.85;3.80;;;9.80;99.90;;;;;;5064776;28;20399;-67
2023/01/11 02:25:01;;;;;;;5.90;3.85;;;9.80;99.90;;;;;;5066723;28;20131;-67
2023/01/11 02:27:41;;;;;;;4.90;4.22;;;9.90;99.90;;;;;;5065185;28;20048;-68
2023/01/11 02:30:13;;;;;;;9.90;4.35;;;9.90;99.90;;;;;;5082003;28;20044;-68
2023/01/11 02:33:29;;;;;;;5.57;3.60;;;9.90;99.90;;;;;;5080784;28;20044;-67
2023/01/11 02:36:03;;;;;;;5.70;3.50;;;10.00;99.90;;;;;;5003949;28;20100;-68
2023/01/11 02:38:37;;;;;;;5.07;3.58;;;10.00;99.90;;;;;;5004851;28;20117;-68
2023/01/11 02:45:00;;;;;;;5.72;3.17;;;10.00;99.90;;;;;;5047418;28;20127;-67
2023/01/11 02:47:08;;;;;;;3.90;3.38;;;10.00;99.90;;;;;;5083256;28;20144;-67
2023/01/11 02:49:43;;;;;;;4.95;3.50;;;10.00;99.90;;;;;;5059704;28;20036;-67
2023/01/11 02:52:19;;;;;;;5.18;3.90;;;10.00;99.90;;;;;;5073904;28;20105;-67
2023/01/11 02:54:52;;;;;;;6.95;3.42;;;10.00;99.90;;;;;;5081999;28;20137;-67
2023/01/11 02:57:21;;;;;;;3.70;3.25;;;10.00;99.90;;;;;;5079155;28;20036;-68
2023/01/11 02:59:49;;;;;;;3.47;3.00;;;10.00;99.90;;;;;;5034579;28;20049;-67
2023/01/11 03:02:18;;;;;;;3.28;2.72;;;10.00;99.90;;;;;;5041123;28;20040;-67
2023/01/11 03:04:43;;;;;;;3.30;2.90;;;10.10;99.90;;;;;;5066601;28;20188;-68
2023/01/11 03:07:46;;;;;;;3.45;3.00;;;10.10;99.90;;;;;;5044899;28;20068;-68
2023/01/11 03:10:48;;;;;;;3.40;2.97;;;10.10;99.90;;;;;;5055624;28;20577;-68
2023/01/11 03:13:44;;;;;;;6.18;3.53;;;10.10;99.90;;;;;;5058534;28;20037;-68
2023/01/11 03:16:26;;;;;;;4.82;2.80;;;10.10;99.90;;;;;;5043449;28;20041;-68
2023/01/11 03:19:01;;;;;;;4.53;3.05;;;10.10;99.90;;;;;;5059623;28;20136;-68
2023/01/11 03:21:51;;;;;;;4.25;2.35;;;10.10;99.90;;;;;;5064361;28;20036;-68
2023/01/11 03:24:42;;;;;;;3.17;2.10;;;10.20;99.90;;;;;;5056902;28;20354;-67
2023/01/11 03:27:18;;;;;;;5.35;2.13;;;10.20;99.90;;;;;;5055022;28;20052;-67
2023/01/11 03:29:49;;;;;;;4.10;2.10;;;10.20;99.90;;;;;;5059807;28;20077;-67
2023/01/11 03:32:31;;;;;;;2.60;2.10;;;10.20;99.90;;;;;;5044372;28;20372;-67
2023/01/11 03:35:25;;;;;;;3.53;1.60;;;10.20;99.90;;;;;;5062359;28;20048;-67
2023/01/11 03:37:58;;;;;;;4.20;1.23;;;10.20;99.90;;;;;;5032841;28;20147;-68
2023/01/11 03:40:32;;;;;;;4.82;1.60;;;10.20;99.90;;;;;;5041699;28;20037;-67
2023/01/11 03:43:12;;;;;;;1.42;1.20;;;10.30;99.90;;;;;;5057087;28;20059;-67
2023/01/11 03:46:07;;;;;;;2.03;1.08;;;10.30;99.90;;;;;;5042269;28;20045;-68
2023/01/11 03:48:56;;;;;;;1.55;0.88;;;10.30;99.90;;;;;;5058126;28;20037;-67
2023/01/11 03:51:28;;;;;;;1.70;0.95;;;10.30;99.90;;;;;;5062525;28;20032;-67
2023/01/11 03:53:59;;;;;;;3.00;1.00;;;10.30;99.90;;;;;;5057411;28;20461;-67
2023/01/11 03:56:34;;;;;;;1.65;1.00;;;10.30;99.90;;;;;;5063689;28;20136;-67
2023/01/11 03:59:00;;;;;;;2.05;1.10;;;10.40;99.90;;;;;;5043778;28;20800;-67
2023/01/11 04:01:26;;;;;;;1.67;1.30;;;10.40;99.90;;;;;;5067417;28;20046;-67
2023/01/11 04:03:52;;;;;;;1.02;0.93;;;10.30;99.90;;;;;;5076843;28;20044;-67
2023/01/11 04:06:18;;;;;;;1.92;0.90;;;10.40;99.90;;;;;;5062049;28;20040;-68
2023/01/11 04:08:43;;;;;;;1.15;0.85;;;10.40;99.90;;;;;;5075998;28;20417;-67
2023/01/11 04:11:09;;;;;;;1.40;1.10;;;10.40;99.90;;;;;;5084447;28;20203;-68
2023/01/11 04:13:35;;;;;;;3.20;1.45;;;10.50;99.90;;;;;;5060947;28;20074;-68
2023/01/11 04:16:01;;;;;;;2.95;1.35;;;10.50;99.90;;;;;;5062117;28;20075;-68
2023/01/11 04:18:26;;;;;;;3.05;1.38;;;10.50;99.90;;;;;;5078354;28;20032;-69
2023/01/11 04:20:52;;;;;;;3.70;1.73;;;10.60;99.90;;;;;;5077163;28;20043;-68
2023/01/11 04:23:18;;;;;;;5.47;2.13;;;10.60;99.90;;;;;;5078656;28;20036;-68
2023/01/11 04:25:43;;;;;;;5.28;2.40;;;10.60;99.90;;;;;;5084060;28;20452;-68
2023/01/11 04:28:10;;;;;;;3.50;2.40;;;10.60;99.90;;;;;;5087712;28;20032;-69
2023/01/11 04:30:36;;;;;;;5.05;2.97;;;10.60;99.90;;;;;;5060030;28;20048;-68
2023/01/11 04:33:01;;;;;;;5.90;2.63;;;10.70;99.90;;;;;;5057894;28;20067;-69
2023/01/11 04:35:27;;;;;;;11.30;3.80;;;10.70;99.90;;;;;;5084375;28;20055;-69
2023/01/11 04:37:57;;;;;;;8.00;3.55;;;10.70;99.90;;;;;;5077325;28;20103;-68
2023/01/11 04:40:23;;;;;;;11.57;3.90;;;10.70;99.90;;;;;;5077626;28;20337;-69
2023/01/11 04:42:49;;;;;;;9.85;3.70;;;10.70;99.90;;;;;;5064740;28;20078;-69
2023/01/11 04:45:15;;;;;;;11.13;4.03;;;10.70;99.90;;;;;;5077644;28;20033;-69
2023/01/11 04:47:41;;;;;;;10.13;3.78;;;10.70;99.90;;;;;;5079410;28;20040;-69
2023/01/11 04:50:07;;;;;;;8.70;3.90;;;10.80;99.90;;;;;;5059382;28;20048;-69
2023/01/11 04:52:33;;;;;;;12.38;4.25;;;10.80;99.90;;;;;;5083129;28;20127;-69
2023/01/11 04:54:59;;;;;;;12.18;3.75;;;10.80;99.90;;;;;;5081771;28;20042;-69
2023/01/11 04:57:24;;;;;;;13.80;4.75;;;10.70;99.90;;;;;;5079195;28;20174;-69
2023/01/11 04:59:50;;;;;;;13.25;2.97;;;10.80;99.90;;;;;;5085455;28;20068;-68
2023/01/11 05:02:16;;;;;;;13.38;3.28;;;10.80;99.90;;;;;;5066315;28;20036;-69
2023/01/11 05:04:42;;;;;;;15.48;2.75;;;10.70;99.90;;;;;;5077798;28;20131;-70
2023/01/11 05:07:09;;;;;;;20.08;3.67;;;10.80;99.90;;;;;;5079543;28;20126;-69
2023/01/11 05:09:35;;;;;;;18.10;3.22;;;10.80;99.90;;;;;;5081207;28;20040;-69
2023/01/11 05:12:01;;;;;;;22.83;3.40;;;10.70;99.90;;;;;;5069450;28;20089;-70
2023/01/11 05:14:27;;;;;;;20.00;2.90;;;10.80;99.90;;;;;;5078868;28;20032;-69
2023/01/11 05:16:53;;;;;;;25.33;3.85;;;10.80;99.90;;;;;;5073347;28;20044;-69
2023/01/11 05:19:19;;;;;;;20.63;3.10;;;10.70;99.90;;;;;;5070626;28;20036;-69
2023/01/11 05:21:44;;;;;;;34.42;4.15;;;10.70;99.90;;;;;;5081148;28;20032;-69
2023/01/11 05:24:13;;;;;;;20.85;3.60;;;10.70;99.90;;;;;;5084450;28;20079;-69
2023/01/11 05:26:40;;;;;;;29.80;3.85;;;10.70;99.90;;;;;;5079950;28;20119;-68
2023/01/11 05:29:09;;;;;;;19.20;3.17;;;10.70;99.90;;;;;;5078164;28;20037;-69
2023/01/11 05:31:37;;;;;;;26.55;3.78;;;10.70;99.90;;;;;;5062676;28;20055;-69
2023/01/11 05:34:02;;;;;;;25.02;3.30;;;10.70;99.90;;;;;;5065147;28;20057;-69
2023/01/11 05:36:28;;;;;;;25.67;3.85;;;10.70;99.90;;;;;;5059770;28;20033;-69
2023/01/11 05:38:55;;;;;;;26.48;3.20;;;10.60;99.90;;;;;;5066584;28;20152;-69
2023/01/11 05:41:23;;;;;;;29.67;3.90;;;10.60;99.90;;;;;;5082794;28;20067;-68
2023/01/11 05:46:36;;;;;;;29.58;4.15;;;10.60;99.90;;;;;;5060748;28;20112;-68
2023/01/11 05:49:02;;;;;;;30.23;3.55;;;10.60;99.90;;;;;;5063088;28;20114;-68
2023/01/11 05:51:29;;;;;;;26.02;4.40;;;10.60;99.90;;;;;;5063080;28;20051;-69
2023/01/11 05:53:56;;;;;;;28.83;3.88;;;10.60;99.90;;;;;;5082974;28;20036;-68
2023/01/11 05:56:22;;;;;;;22.65;3.85;;;10.60;99.90;;;;;;5079508;28;20045;-68
2023/01/11 05:58:49;;;;;;;27.48;4.30;;;10.60;99.90;;;;;;5085601;28;20060;-69
2023/01/11 06:01:16;;;;;;;29.42;3.55;;;10.50;99.90;;;;;;5064393;28;20076;-69
2023/01/11 06:03:41;;;;;;;30.58;4.38;;;10.50;99.90;;;;;;5059059;28;20106;-69
2023/01/11 06:06:08;;;;;;;23.35;3.13;;;10.50;99.90;;;;;;5078942;28;20028;-69
2023/01/11 06:08:34;;;;;;;37.22;4.03;;;10.50;99.90;;;;;;5063083;28;20107;-69
2023/01/11 06:11:00;;;;;;;22.42;3.67;;;10.40;99.90;;;;;;5077483;28;20043;-69
2023/01/11 06:13:26;;;;;;;33.45;4.15;;;10.40;99.90;;;;;;5081297;28;20036;-69
2023/01/11 06:16:12;;;;;;;25.95;3.72;;;10.40;99.90;;;;;;5077892;28;20066;-69
2023/01/11 06:18:40;;;;;;;21.13;3.45;;;10.40;99.90;;;;;;5064605;28;20047;-69
2023/01/11 06:21:07;;;;;;;26.35;3.92;;;10.40;99.90;;;;;;5084394;28;20041;-69
2023/01/11 06:23:35;;;;;;;27.08;3.70;;;10.30;99.90;;;;;;5077566;28;20048;-69
2023/01/11 06:26:06;;;;;;;32.20;3.70;;;10.40;99.90;;;;;;5087196;28;20040;-69
2023/01/11 06:28:32;;;;;;;26.13;3.97;;;10.30;99.90;;;;;;5066684;28;20361;-69
2023/01/11 06:30:58;;;;;;;30.65;4.70;;;10.30;99.90;;;;;;5064976;28;20139;-69
2023/01/11 06:33:26;;;;;;;31.83;4.63;;;10.30;99.90;;;;;;5060336;28;20048;-69
2023/01/11 06:35:52;;;;;;;36.15;4.35;;;10.20;99.90;;;;;;5065105;28;20495;-69
2023/01/11 06:38:20;;;;;;;25.65;3.90;;;10.20;99.90;;;;;;5048231;28;20075;-69
2023/01/11 06:40:59;;;;;;;29.90;4.20;;;10.20;99.90;;;;;;5068591;28;20522;-69
2023/01/11 06:43:26;;;;;;;39.03;3.97;;;10.20;99.90;;;;;;5072657;28;20088;-69
2023/01/11 06:45:52;;;;;;;25.40;3.83;;;10.10;99.90;;;;;;5084993;28;20062;-69
2023/01/11 06:48:19;;;;;;;35.30;3.90;;;10.10;99.90;;;;;;5069992;28;20514;-69
2023/01/11 06:50:53;;;;;;;34.17;4.60;;;10.10;99.90;;;;;;5086613;28;20119;-69
2023/01/11 06:53:19;;;;;;;29.67;4.20;;;10.00;99.90;;;;;;5086118;28;20036;-69
2023/01/11 06:55:50;;;;;;;28.27;3.85;;;10.00;99.90;;;;;;5084763;28;20028;-69
2023/01/11 06:58:16;;;;;;;31.83;4.32;;;10.00;99.90;;;;;;5067787;28;20506;-69
2023/01/11 07:00:41;;;;;;;36.47;4.38;;;10.00;99.90;;;;;;5084719;28;20057;-69
2023/01/11 07:03:09;;;;;;;25.85;3.58;;;9.90;99.90;;;;;;5082909;28;20041;-69
2023/01/11 07:05:35;;;;;;;41.58;4.80;;;9.90;99.90;;;;;;5066697;28;20048;-69
2023/01/11 07:08:01;;;;;;;35.67;4.68;;;9.90;99.90;;;;;;5084272;28;20044;-69
2023/01/11 07:10:28;;;;;;;35.97;4.78;;;9.90;99.90;;;;;;5084651;28;20338;-69
2023/01/11 07:12:53;;;;;;;38.72;4.63;;;9.90;99.90;;;;;;5083854;28;20679;-69
2023/01/11 07:15:19;;;;;;;44.20;5.00;;;9.90;99.90;;;;;;5047271;28;20039;-68
2023/01/11 07:17:47;;;;;;;38.90;5.32;;;9.90;99.90;;;;;;5064887;28;20145;-69
2023/01/11 07:20:13;;;;;;;35.38;4.80;;;9.80;99.90;;;;;;5081584;28;20106;-68
2023/01/11 07:22:39;;;;;;;43.75;4.75;;;9.90;99.90;;;;;;5063546;28;20052;-68
2023/01/11 07:25:05;;;;;;;38.75;5.15;;;9.90;99.90;;;;;;5086428;28;20502;-68
2023/01/11 07:27:31;;;;;;;31.95;4.43;;;9.80;99.90;;;;;;5082042;28;20052;-69
2023/01/11 07:30:00;;;;;;;38.88;5.13;;;9.90;99.90;;;;;;5080742;28;20382;-68
2023/01/11 07:32:27;;;;;;;39.90;4.97;;;9.80;99.90;;;;;;5066283;28;20123;-68
2023/01/11 07:34:54;;;;;;;43.17;5.60;;;9.80;99.90;;;;;;5063443;28;20048;-68
2023/01/11 07:37:20;;;;;;;35.35;5.63;;;9.80;99.90;;;;;;5060230;28;20047;-68
2023/01/11 07:39:46;;;;;;;39.50;4.30;;;9.80;99.90;;;;;;5081646;28;20032;-68
2023/01/11 07:44:56;;;;;;;26.40;3.92;;;9.80;99.90;;;;;;5063371;28;20047;-68
2023/01/11 07:47:22;;;;;;;22.88;3.35;;;9.80;99.90;;;;;;5081260;28;20040;-68
2023/01/11 07:49:48;;;;;;;25.08;3.47;;;9.70;99.90;;;;;;5081462;28;20526;-68
2023/01/11 07:52:13;;;;;;;26.58;3.30;;;9.70;99.90;;;;;;5088902;28;20101;-68
2023/01/11 07:54:39;;;;;;;28.75;4.95;;;9.70;99.90;;;;;;5066112;28;20044;-68
2023/01/11 07:57:05;;;;;;;32.08;4.38;;;9.70;99.90;;;;;;5079708;28;20036;-68
2023/01/11 07:59:31;;;;;;;32.08;4.40;;;9.70;99.90;;;;;;5081558;28;20055;-68
2023/01/11 08:01:56;;;;;;;33.40;4.18;;;9.70;99.90;;;;;;5080926;28;20105;-68
2023/01/11 08:04:22;;;;;;;29.58;4.30;;;9.60;99.90;;;;;;5068574;28;20040;-68
2023/01/11 08:06:48;;;;;;;33.67;3.83;;;9.60;99.90;;;;;;5078469;28;20040;-68
2023/01/11 08:09:13;;;;;;;19.50;4.25;;;9.50;99.90;;;;;;5081012;28;20063;-68
2023/01/11 08:14:39;;;;;;;19.35;2.80;;;9.30;99.90;;;;;;5083955;28;20145;-68
2023/01/11 08:17:10;;;;;;;19.77;2.80;;;9.30;99.90;;;;;;5056921;28;20048;-68
2023/01/11 08:19:37;;;;;;;21.42;2.83;;;9.20;99.90;;;;;;5082363;28;20135;-68
2023/01/11 08:22:02;;;;;;;14.73;2.30;;;9.20;99.90;;;;;;5084826;28;20044;-68
2023/01/11 08:24:29;;;;;;;11.15;2.63;;;9.10;99.90;;;;;;5081213;28;20434;-68
2023/01/11 08:26:54;;;;;;;15.27;2.85;;;9.00;99.90;;;;;;5068405;28;20028;-68
2023/01/11 08:29:21;;;;;;;20.50;2.65;;;9.00;99.90;;;;;;5086411;28;20036;-68
2023/01/11 08:31:47;;;;;;;15.32;2.35;;;8.90;99.90;;;;;;5070402;28;20056;-68
2023/01/11 08:34:13;;;;;;;12.45;2.03;;;8.90;99.90;;;;;;5086617;28;20075;-68
2023/01/11 08:36:39;;;;;;;18.33;3.15;;;8.90;99.90;;;;;;5081901;28;20036;-68
2023/01/11 08:39:05;;;;;;;23.23;2.67;;;8.90;99.90;;;;;;5064978;28;20097;-68
2023/01/11 08:41:31;;;;;;;18.25;2.38;;;8.90;99.90;;;;;;5080921;28;20072;-68
2023/01/11 08:43:57;;;;;;;16.83;2.53;;;8.90;99.90;;;;;;5085187;28;20040;-68
2023/01/11 08:46:23;;;;;;;16.73;2.47;;;8.90;99.90;;;;;;5082223;28;20033;-68
2023/01/11 08:48:49;;;;;;;19.35;2.28;;;8.80;99.90;;;;;;5081296;28;20047;-68
2023/01/11 08:51:16;;;;;;;16.33;2.67;;;8.80;99.90;;;;;;5062884;28;20044;-68
2023/01/11 08:53:42;;;;;;;17.23;1.92;;;8.90;99.90;;;;;;5080355;28;20120;-68
2023/01/11 08:56:08;;;;;;;18.55;2.08;;;8.90;99.90;;;;;;5064912;28;20200;-68
2023/01/11 08:58:35;;;;;;;25.13;3.08;;;8.90;99.90;;;;;;5083112;28;20395;-68
2023/01/11 09:01:02;;;;;;;13.77;2.78;;;8.90;99.90;;;;;;5065697;28;20528;-68
2023/01/11 09:03:31;;;;;;;18.08;2.28;;;8.80;99.90;;;;;;5046662;28;20154;-68
2023/01/11 09:05:57;;;;;;;15.52;2.42;;;8.90;99.90;;;;;;5062870;28;20037;-68
2023/01/11 09:08:26;;;;;;;19.13;2.90;;;8.80;99.90;;;;;;5061260;28;20037;-68
2023/01/11 09:10:52;;;;;;;14.00;2.13;;;8.80;99.90;;;;;;5066233;28;20037;-68
2023/01/11 09:13:18;;;;;;;15.18;2.95;;;8.80;99.90;;;;;;5063503;28;20040;-68
2023/01/11 09:15:45;;;;;;;21.30;2.97;;;8.90;99.90;;;;;;5064711;28;20032;-67
2023/01/11 09:18:12;;;;;;;26.70;2.70;;;8.90;99.90;;;;;;5036075;28;20041;-68
2023/01/11 09:20:37;;;;;;;26.02;4.10;;;8.90;99.90;;;;;;5059720;28;20131;-68
2023/01/11 09:23:03;;;;;;;18.23;2.65;;;8.90;99.90;;;;;;5063631;28;20115;-68
2023/01/11 09:25:29;;;;;;;20.40;2.80;;;8.90;99.90;;;;;;5062476;28;20055;-68
2023/01/11 09:27:55;;;;;;;15.80;2.28;;;8.90;99.90;;;;;;5045637;28;20104;-68
2023/01/11 09:30:22;;;;;;;22.40;2.95;;;8.80;99.90;;;;;;5062311;28;20381;-68
2023/01/11 09:32:50;;;;;;;18.35;2.35;;;8.80;99.90;;;;;;5065815;28;20110;-68
2023/01/11 09:35:18;;;;;;;21.02;2.05;;;8.80;99.90;;;;;;5065192;28;20122;-68
2023/01/11 09:37:48;;;;;;;18.58;2.70;;;8.80;99.90;;;;;;5022915;28;20033;-68
2023/01/11 09:40:21;;;;;;;23.42;2.78;;;8.80;99.90;;;;;;5059008;28;20033;-68
2023/01/11 09:42:59;;;;;;;14.35;2.22;;;8.80;99.90;;;;;;5063790;28;20123;-68
2023/01/11 09:45:27;;;;;;;16.45;2.72;;;8.90;99.90;;;;;;5051275;28;20368;-68
2023/01/11 09:47:59;;;;;;;25.42;2.83;;;8.90;99.90;;;;;;5066692;28;20033;-67
2023/01/11 09:50:34;;;;;;;18.90;2.75;;;8.90;99.90;;;;;;5045358;28;20040;-68
2023/01/11 09:53:07;;;;;;;19.45;2.42;;;9.00;99.90;;;;;;5063886;28;20484;-68
2023/01/11 09:55:45;;;;;;;21.52;2.58;;;9.00;99.90;;;;;;5069916;28;20039;-68
2023/01/11 09:58:31;;;;;;;17.05;2.30;;;9.10;99.90;;;;;;5067511;28;20075;-68
2023/01/11 10:01:18;;;;;;;17.48;2.35;;;9.20;99.90;;;;;;5075875;28;20057;-68
2023/01/11 10:04:24;;;;;;;17.00;2.58;;;9.20;99.90;;;;;;5086856;28;20045;-68
2023/01/11 10:07:18;;;;;;;20.75;3.15;;;9.20;99.90;;;;;;5087885;28;20032;-68
2023/01/11 10:10:00;;;;;;;16.75;2.85;;;9.30;99.90;;;;;;5066716;28;20558;-68
2023/01/11 10:12:32;;;;;;;19.20;2.72;;;9.40;99.90;;;;;;5085597;28;20042;-68
2023/01/11 10:15:24;;;;;;;23.27;3.22;;;9.50;99.90;;;;;;5080641;28;20079;-68
2023/01/11 10:18:28;;;;;;;18.17;3.03;;;9.50;99.90;;;;;;5084195;28;20051;-68
2023/01/11 10:21:06;;;;;;;29.33;3.40;;;9.50;99.90;;;;;;5069432;28;20043;-68
2023/01/11 10:23:43;;;;;;;22.30;4.18;;;9.50;99.90;;;;;;5087564;28;20040;-68
2023/01/11 10:26:28;;;;;;;19.42;2.75;;;9.60;99.90;;;;;;5089972;28;20449;-67
2023/01/11 10:34:58;;;;;;;14.88;2.67;;;9.70;99.90;;;;;;5084088;28;20036;-68
2023/01/11 10:37:53;;;;;;;21.95;3.30;;;9.80;99.90;;;;;;5087314;28;20032;-68
2023/01/11 10:40:39;;;;;;;18.85;3.45;;;9.80;99.90;;;;;;5079663;28;20091;-68
2023/01/11 10:43:23;;;;;;;20.98;2.80;;;9.90;99.90;;;;;;5085591;28;20051;-68
2023/01/11 10:46:10;;;;;;;18.20;2.65;;;9.90;99.90;;;;;;5081862;28;20420;-68
2023/01/11 10:48:41;;;;;;;20.60;3.03;;;9.80;99.90;;;;;;5087307;28;20051;-68
2023/01/11 10:51:29;;;;;;;18.20;2.88;;;9.90;99.90;;;;;;5061458;28;20479;-68
2023/01/11 10:54:16;;;;;;;18.15;3.45;;;9.80;99.90;;;;;;5082128;28;20086;-68
2023/01/11 10:57:40;;;;;;;18.08;3.22;;;9.80;99.90;;;;;;5063512;28;20035;-68
2023/01/11 11:00:16;;;;;;;27.63;3.13;;;9.70;99.90;;;;;;5021954;28;20085;-68
2023/01/11 11:03:10;;;;;;;20.90;2.80;;;9.60;99.90;;;;;;5026042;28;20048;-68
2023/01/11 11:05:58;;;;;;;15.38;2.33;;;9.60;99.90;;;;;;5059977;28;20080;-68
2023/01/11 11:08:55;;;;;;;23.42;3.53;;;9.60;99.90;;;;;;5076442;28;20439;-68
2023/01/11 11:11:32;;;;;;;19.77;3.17;;;9.60;99.90;;;;;;5060528;28;20470;-68
2023/01/11 11:14:06;;;;;;;17.75;2.47;;;9.60;99.90;;;;;;5080490;28;20432;-68
2023/01/11 11:16:51;;;;;;;18.05;2.53;;;9.60;99.90;;;;;;5067059;28;20296;-68
2023/01/11 11:19:20;;;;;;;23.77;3.43;;;9.60;99.90;;;;;;5084713;28;20105;-68
2023/01/11 11:21:48;;;;;;;17.83;2.83;;;9.60;99.90;;;;;;5080947;28;20342;-68
2023/01/11 11:24:23;;;;;;;19.23;2.55;;;9.70;99.90;;;;;;5062888;28;20155;-68
2023/01/11 11:26:56;;;;;;;17.63;2.78;;;9.70;99.90;;;;;;5080857;28;20131;-68
2023/01/11 11:29:29;;;;;;;16.00;3.15;;;9.70;99.90;;;;;;5050640;28;20135;-67
2023/01/11 11:31:58;;;;;;;17.13;3.05;;;9.80;99.90;;;;;;5060250;28;20416;-68
2023/01/11 11:34:26;;;;;;;17.10;2.50;;;9.80;99.90;;;;;;5060746;28;20349;-68
2023/01/11 11:36:53;;;;;;;19.45;3.53;;;9.80;99.90;;;;;;5082261;28;20529;-68
2023/01/11 11:39:30;;;;;;;22.27;3.05;;;9.90;99.90;;;;;;5063990;28;20076;-68
2023/01/11 11:42:04;;;;;;;22.40;3.10;;;9.80;99.90;;;;;;5084569;28;20055;-68
2023/01/11 11:44:30;;;;;;;26.77;3.42;;;9.80;99.90;;;;;;5078528;28;20071;-68
2023/01/11 11:46:57;;;;;;;18.20;3.40;;;9.80;99.90;;;;;;5077929;28;20071;-68
2023/01/11 11:49:23;;;;;;;16.40;2.55;;;9.70;99.90;;;;;;5063228;28;20072;-68
2023/01/11 11:51:50;;;;;;;18.50;2.88;;;9.70;99.90;;;;;;5066397;28;20090;-68
2023/01/11 11:54:42;;;;;;;18.52;2.70;;;9.60;99.90;;;;;;5080624;28;20112;-68
2023/01/11 11:57:34;;;;;;;21.05;3.30;;;9.60;99.90;;;;;;5081040;28;20573;-68
2023/01/11 12:00:08;;;;;;;14.45;2.65;;;9.60;99.90;;;;;;5079049;28;20052;-68
2023/01/11 12:02:36;;;;;;;17.55;2.78;;;9.60;99.90;;;;;;5082933;28;20515;-68
2023/01/11 12:05:08;;;;;;;17.10;2.97;;;9.70;99.90;;;;;;5076319;28;20143;-68
2023/01/11 12:07:36;;;;;;;18.30;3.08;;;9.70;99.90;;;;;;5078779;28;20134;-68
2023/01/11 12:10:12;;;;;;;14.82;3.05;;;9.70;99.90;;;;;;5060628;28;20139;-68
2023/01/11 12:12:56;;;;;;;20.60;2.85;;;9.70;99.90;;;;;;5081387;28;20028;-68
2023/01/11 12:15:28;;;;;;;16.88;2.33;;;9.70;99.90;;;;;;5057924;28;20051;-68
2023/01/11 12:17:55;;;;;;;21.02;3.72;;;9.70;99.90;;;;;;5087162;28;20028;-68
2023/01/11 12:20:20;;;;;;;17.23;3.17;;;9.70;99.90;;;;;;5062845;28;20411;-69
2023/01/11 12:22:46;;;;;;;20.83;3.42;;;9.70;99.90;;;;;;5081457;28;20036;-68
2023/01/11 12:25:12;;;;;;;18.50;3.22;;;9.80;99.90;;;;;;5064550;28;20044;-68
2023/01/11 12:28:08;;;;;;;18.50;3.03;;;9.80;99.90;;;;;;5080905;28;20032;-68
2023/01/11 12:30:49;;;;;;;18.42;3.20;;;9.80;99.90;;;;;;5078098;28;20064;-68
2023/01/11 12:33:47;;;;;;;16.30;2.53;;;9.90;99.90;;;;;;5079979;28;20111;-68
2023/01/11 12:36:45;;;;;;;19.13;3.75;;;9.90;99.90;;;;;;5076976;28;20036;-68
2023/01/11 12:39:32;;;;;;;15.93;3.00;;;10.00;99.90;;;;;;5075294;28;20040;-68
2023/01/11 12:42:36;;;;;;;20.63;3.67;;;9.90;99.90;;;;;;5084881;28;20079;-68
2023/01/11 12:45:27;;;;;;;23.35;4.20;;;9.90;99.90;;;;;;5075723;28;20040;-68
2023/01/11 12:48:12;;;;;;;19.10;3.35;;;9.90;99.90;;;;;;5080598;28;20040;-68
2023/01/11 12:50:55;;;;;;;17.70;2.80;;;9.80;99.90;;;;;;5076194;28;20131;-69
2023/01/11 12:53:33;;;;;;;17.05;2.95;;;9.80;99.90;;;;;;5056699;28;20124;-67
2023/01/11 12:56:31;;;;;;;23.10;3.88;;;9.90;99.90;;;;;;5080831;28;20041;-67
2023/01/11 12:59:14;;;;;;;16.05;2.92;;;9.90;99.90;;;;;;5083059;28;20158;-67
2023/01/11 13:02:06;;;;;;;17.83;3.25;;;9.90;99.90;;;;;;5084951;28;20062;-67
2023/01/11 13:05:04;;;;;;;20.67;3.03;;;9.80;99.90;;;;;;5081612;28;20062;-67
2023/01/11 13:08:04;;;;;;;23.55;3.22;;;9.80;99.90;;;;;;5051556;28;20048;-68
2023/01/11 13:10:42;;;;;;;18.83;2.83;;;9.90;99.90;;;;;;5079851;28;20040;-67
2023/01/11 13:13:40;;;;;;;27.05;3.72;;;9.90;99.90;;;;;;5060739;28;20072;-67
2023/01/11 13:16:44;;;;;;;18.75;3.65;;;10.00;99.90;;;;;;5078014;28;20082;-67
2023/01/11 13:19:20;;;;;;;18.00;3.05;;;10.00;99.90;;;;;;5079371;28;20039;-67
2023/01/11 13:21:52;;;;;;;21.67;3.45;;;9.90;99.90;;;;;;5074551;28;20509;-66
2023/01/11 13:24:25;;;;;;;21.20;3.50;;;9.90;99.90;;;;;;5077499;28;20060;-67
2023/01/11 13:27:05;;;;;;;16.83;2.78;;;9.80;99.90;;;;;;5080884;28;20044;-67
2023/01/11 13:29:36;;;;;;;17.02;3.25;;;9.70;99.90;;;;;;5066487;28;20047;-67
2023/01/11 13:32:06;;;;;;;18.08;3.00;;;9.70;99.90;;;;;;5078701;28;20068;-67
2023/01/11 13:34:40;;;;;;;16.48;3.50;;;9.60;99.90;;;;;;5081740;28;20028;-67
2023/01/11 13:37:17;;;;;;;17.95;3.25;;;9.70;99.90;;;;;;5084448;28;20028;-67
2023/01/11 13:39:46;;;;;;;21.50;3.28;;;9.60;99.90;;;;;;5083367;28;20471;-67
2023/01/11 13:42:19;;;;;;;19.77;2.95;;;9.70;99.90;;;;;;5067161;28;20135;-67
2023/01/11 13:45:14;;;;;;;19.40;3.10;;;9.70;99.90;;;;;;5084588;28;20040;-67
2023/01/11 13:48:03;;;;;;;16.08;3.15;;;9.70;99.90;;;;;;5085153;28;20055;-67
2023/01/11 13:50:40;;;;;;;20.85;3.05;;;9.80;99.90;;;;;;5082757;28;20523;-67